Oranjestad, Aruba
Current Conditions -  °F | °C
As of 4:00 PM on Sunday 21 Dec 2014 (Local Time) from TNCA Reporting Station
Few Clouds Few Clouds  
Wind Chill: 88°   Ceiling: Unl
Heat Index: 96°   Visibility: 6mi
Dew Point: 73°   Wind: 20mph
Humidity: 62%   Direction: 70°ENE
Pressure: 29.85"   Gusts: NA
Location:  12.51°N, 70.03°W
Report Text: TNCA 212000Z 07017KT 9999 FEW025 31/23 Q1011 A2987 NOSIG
Loading
Personal Weather Stations






























Interactive Weather Map New forecast layout! Learn more

10-Day Weather Forecast

Advertisements
Track Severe Weather on mobile